Aviosuperficie Pegasus 2000

IT-0055 · 皮埃蒙特, 意大利

罗盘
风向 的 风向 的 风向 到 风向 050° Aviosuperficie Pegasus 2000 18/36
风: 3 kt, 1 beaufort

2 kt

2 kt
改变
0 ft 1.000 2.000 3.000 4.000 5.000
Cloud Cloud
FEW 2.000
METAR LIMF 240020Z 05003KT 010V070 8000 FEW020 05/05 Q1000

METAR Aviosuperficie Pegasus 2000 - IT-0055

Aviosuperficie Pegasus 2000是,意大利中的中型机场。 该机场位于纬度45,31175和经度7,66516。 该机场有一条跑道: 18/36. 这个机场没有ICAO代码,我们使用IT-0055作为参考。 机场在Milano FIR中。

该航空气象观测是针对Turin Airport在2024年2月24日 01:20, 当地时间进行的。

机场观察

风向为050°,速度为3 kt。 风向在010°和070°之间变化。

可见度为8 km。

有几云在2.000 ft的高度。 没有观察到天花板。

温度为5 °C,阵风为2 °C。 露点为5 °C,相对湿度为100%。 海平面上的气压为1000 hPa (QNH)。

白天

今天,太阳从07:16升起,在18:08降落。 这适用于Aviosuperficie Pegasus 2000,世界夏令时可能有所不同。 当地时间与世界标准时间之间的时差为+1 小时。 当前,没有夏令时有效。

公司介绍

我们没有关于这个机场的公司信息。

体会

到Vliegles.nl去找飞行课程,跳伞和其他飞行体验。 浏览页面,了解Aviosuperficie Pegasus 2000附近所有可用的活动。 你也可以使用搜索功能来寻找你所在地附近的特定飞行课程、跳伞或其他飞行体验。

跑道

Id 标题 侧风 逆风 侧风 %
18/36 175°-355° 2 kt 2 kt 82 %

逆风成分最大的方向会被突出显示,并用于横风计算。 这并不一定意味着这个方向在使用。

乌云

2.000 ft FEW 几云

温度 & 天气

温度 5 °C
露点 5 °C
相对湿度 100%
风寒 2 °C
Kp-index 0 (0-9)

白天

日出
07:16 (5:36)
中午
12:42
日落
18:08

小工具

你想在你的网站上有一个关于Aviosuperficie Pegasus 2000的当前航空天气(METAR)的小部件吗?

显示HTML代码
?>